TimeEST,TemperatureF,Dew PointF,Humidity,Sea Level PressureIn,VisibilityMPH,Wind Direction,Wind SpeedMPH,Gust SpeedMPH,PrecipitationIn,Events,Conditions,WindDirDegrees,DateUTC
12:53 AM,50.0,39.9,68,30.35,10.0,NNW,17.3,-,N/A,,Scattered Clouds,340,2013-01-19 05:53:00
1:53 AM,48.9,39.9,71,30.34,10.0,NNW,12.7,-,N/A,,Scattered Clouds,330,2013-01-19 06:53:00
2:53 AM,50.0,39.9,68,30.35,10.0,North,15.0,-,N/A,,Scattered Clouds,350,2013-01-19 07:53:00
3:53 AM,50.0,39.9,68,30.34,10.0,North,15.0,-,N/A,,Mostly Cloudy,360,2013-01-19 08:53:00
4:53 AM,48.9,39.9,71,30.33,10.0,North,15.0,-,N/A,,Scattered Clouds,10,2013-01-19 09:53:00
5:53 AM,50.0,39.9,68,30.34,10.0,North,16.1,-,N/A,,Mostly Cloudy,360,2013-01-19 10:53:00
6:53 AM,48.9,39.9,71,30.34,10.0,North,16.1,-,N/A,,Mostly Cloudy,360,2013-01-19 11:53:00
7:53 AM,48.9,39.9,71,30.34,10.0,North,15.0,-,N/A,,Partly Cloudy,360,2013-01-19 12:53:00
8:53 AM,51.1,42.1,71,30.36,10.0,North,9.2,-,N/A,,Scattered Clouds,360,2013-01-19 13:53:00
9:53 AM,57.9,48.0,70,30.37,10.0,NNE,15.0,-,N/A,,Scattered Clouds,30,2013-01-19 14:53:00
10:53 AM,60.1,48.9,67,30.37,10.0,NNE,16.1,-,N/A,,Scattered Clouds,30,2013-01-19 15:53:00
11:53 AM,62.1,48.9,62,30.34,10.0,NNE,12.7,-,N/A,,Scattered Clouds,30,2013-01-19 16:53:00
12:53 PM,63.0,50.0,63,30.31,10.0,NNE,12.7,-,N/A,,Mostly Cloudy,30,2013-01-19 17:53:00
1:53 PM,61.0,50.0,67,30.27,10.0,NNE,16.1,-,N/A,,Mostly Cloudy,30,2013-01-19 18:53:00
2:53 PM,60.1,51.1,72,30.25,10.0,NNE,11.5,-,N/A,,Mostly Cloudy,20,2013-01-19 19:53:00
3:53 PM,59.0,51.1,75,30.25,10.0,NNE,12.7,-,N/A,,Overcast,30,2013-01-19 20:53:00
4:53 PM,59.0,52.0,78,30.25,10.0,NNE,11.5,-,N/A,,Overcast,30,2013-01-19 21:53:00
5:53 PM,57.9,52.0,81,30.24,8.0,North,11.5,-,N/A,,Overcast,10,2013-01-19 22:53:00
6:53 PM,57.9,52.0,81,30.25,9.0,North,11.5,-,N/A,,Overcast,360,2013-01-19 23:53:00
7:53 PM,57.9,52.0,81,30.25,9.0,North,10.4,-,N/A,,Overcast,10,2013-01-20 00:53:00
8:53 PM,57.0,52.0,83,30.24,9.0,North,10.4,-,N/A,,Scattered Clouds,10,2013-01-20 01:53:00
9:53 PM,55.9,52.0,87,30.23,9.0,North,9.2,-,N/A,,Mostly Cloudy,350,2013-01-20 02:53:00
10:53 PM,55.9,52.0,87,30.23,9.0,NNW,9.2,-,N/A,,Mostly Cloudy,340,2013-01-20 03:53:00
11:53 PM,55.9,52.0,87,30.21,9.0,North,9.2,-,N/A,,Mostly Cloudy,350,2013-01-20 04:53:00